createdAt,value
2017-12-29T07:00:02.637Z,1.20
2017-12-29T07:01:02.519Z,1.14
2017-12-29T07:02:55.479Z,1.20
2017-12-29T07:03:55.395Z,1.13
2017-12-29T07:05:48.302Z,1.17
2017-12-29T07:06:48.294Z,1.12
2017-12-29T07:08:41.180Z,1.26
2017-12-29T07:09:41.082Z,1.26
2017-12-29T07:11:34.034Z,1.28
2017-12-29T07:12:33.940Z,1.24
2017-12-29T07:14:26.820Z,1.37
2017-12-29T07:15:26.787Z,1.38
2017-12-29T07:17:19.704Z,1.32
2017-12-29T07:18:19.637Z,1.38
2017-12-29T07:20:12.514Z,1.44
2017-12-29T07:21:12.488Z,1.42
2017-12-29T07:23:05.439Z,1.53
2017-12-29T07:24:05.339Z,1.53
2017-12-29T07:25:58.218Z,1.53
2017-12-29T07:26:58.204Z,1.63
2017-12-29T07:28:51.053Z,1.59
2017-12-29T07:29:50.987Z,1.63
2017-12-29T07:31:44.089Z,1.56
2017-12-29T07:32:45.076Z,1.52
2017-12-29T07:34:36.911Z,1.62
2017-12-29T07:35:36.843Z,1.60
2017-12-29T07:37:29.791Z,1.60
2017-12-29T07:38:29.692Z,1.62
2017-12-29T07:40:22.613Z,1.59
2017-12-29T07:41:22.541Z,1.70
2017-12-29T07:43:15.426Z,1.68
2017-12-29T07:44:15.393Z,1.71
2017-12-29T07:46:08.340Z,1.73
2017-12-29T07:47:08.247Z,1.80
2017-12-29T07:49:01.128Z,1.81
2017-12-29T07:50:01.097Z,1.77
2017-12-29T07:51:54.006Z,1.84
2017-12-29T07:52:53.947Z,1.91
2017-12-29T07:54:46.825Z,1.78
2017-12-29T07:55:46.794Z,1.89
2017-12-29T07:57:39.704Z,1.91
2017-12-29T07:58:39.705Z,1.88
2017-12-29T08:00:32.523Z,1.99
2017-12-29T08:01:32.498Z,1.95
2017-12-29T08:03:25.403Z,2.02
2017-12-29T08:04:25.413Z,1.91
2017-12-29T08:06:18.224Z,1.95
2017-12-29T08:07:18.196Z,2.04
2017-12-29T08:09:11.118Z,2.07
2017-12-29T08:10:11.050Z,2.06
2017-12-29T08:12:04.001Z,2.02
2017-12-29T08:13:03.897Z,2.15
2017-12-29T08:14:56.843Z,2.07
2017-12-29T08:15:56.750Z,2.10
2017-12-29T08:17:49.635Z,2.15
2017-12-29T08:18:49.600Z,2.10
2017-12-29T08:20:42.507Z,2.18
2017-12-29T08:21:42.454Z,2.13
2017-12-29T08:23:35.394Z,2.18
2017-12-29T08:24:35.302Z,2.18
2017-12-29T08:26:28.244Z,2.29
2017-12-29T08:27:28.159Z,2.28
2017-12-29T08:29:21.127Z,2.31
2017-12-29T08:30:21.003Z,2.26
2017-12-29T08:32:13.908Z,2.38
2017-12-29T08:33:13.912Z,2.32
2017-12-29T08:35:06.796Z,2.39
2017-12-29T08:36:06.704Z,2.43
2017-12-29T08:37:59.648Z,2.38
2017-12-29T08:38:59.555Z,2.43
2017-12-29T08:40:52.498Z,2.49
2017-12-29T08:41:52.401Z,2.47
2017-12-29T08:43:45.353Z,2.56
2017-12-29T08:44:45.253Z,2.56
2017-12-29T08:46:38.201Z,2.53
2017-12-29T08:47:38.107Z,2.49
2017-12-29T08:49:31.013Z,2.72
2017-12-29T08:50:30.960Z,2.71
2017-12-29T08:52:23.841Z,2.71
2017-12-29T08:53:23.802Z,2.71
2017-12-29T08:55:16.708Z,2.69
2017-12-29T08:56:16.657Z,2.68
2017-12-29T08:58:09.598Z,2.80
2017-12-29T08:59:09.511Z,2.72
2017-12-29T09:01:02.969Z,2.79
2017-12-29T09:02:02.872Z,2.79
2017-12-29T09:03:55.756Z,2.75
2017-12-29T09:04:55.716Z,2.77
2017-12-29T09:06:48.646Z,2.77
2017-12-29T09:07:48.566Z,2.92
2017-12-29T09:09:41.517Z,2.95
2017-12-29T09:10:41.422Z,2.86
2017-12-29T09:12:35.389Z,2.86
2017-12-29T09:13:34.233Z,2.87
2017-12-29T09:15:27.152Z,2.90
2017-12-29T09:16:27.179Z,2.85
2017-12-29T09:18:20.017Z,2.85
2017-12-29T09:19:20.029Z,2.89
2017-12-29T09:21:12.918Z,3.01
2017-12-29T09:22:12.823Z,2.98
2017-12-29T09:24:05.771Z,3.03
2017-12-29T09:25:05.674Z,3.01
2017-12-29T09:26:58.590Z,3.01
2017-12-29T09:27:58.525Z,3.11
2017-12-29T09:29:51.404Z,3.03
2017-12-29T09:30:51.377Z,3.14
2017-12-29T09:32:44.281Z,3.25
2017-12-29T09:33:44.222Z,3.21
2017-12-29T09:35:37.138Z,3.26
2017-12-29T09:36:37.073Z,3.26
2017-12-29T09:38:29.980Z,3.26
2017-12-29T09:39:29.931Z,3.31
2017-12-29T09:41:22.787Z,3.22
2017-12-29T09:42:22.744Z,3.32
2017-12-29T09:44:15.612Z,3.40
2017-12-29T09:45:15.582Z,3.31
2017-12-29T09:47:08.419Z,3.42
2017-12-29T09:48:08.431Z,3.44
2017-12-29T09:50:01.272Z,3.50
2017-12-29T09:51:01.224Z,3.59
2017-12-29T09:52:54.111Z,3.56
2017-12-29T09:53:54.038Z,3.65
2017-12-29T09:55:46.957Z,3.73
2017-12-29T09:56:46.925Z,3.65
2017-12-29T09:58:39.839Z,3.59
2017-12-29T09:59:39.770Z,3.78
2017-12-29T10:01:32.658Z,3.73
2017-12-29T10:02:32.627Z,3.86
2017-12-29T10:04:25.493Z,3.86
2017-12-29T10:05:25.433Z,3.87
2017-12-29T10:07:18.458Z,3.92
2017-12-29T10:08:18.489Z,3.95
2017-12-29T10:10:11.349Z,3.98
2017-12-29T10:11:11.282Z,4.01
2017-12-29T10:13:04.167Z,4.12
2017-12-29T10:14:04.130Z,4.02
2017-12-29T10:15:57.045Z,4.08
2017-12-29T10:16:56.983Z,4.10
2017-12-29T10:18:49.823Z,4.17
2017-12-29T10:19:49.789Z,4.17
2017-12-29T10:21:42.844Z,4.13
2017-12-29T10:22:43.867Z,4.19
2017-12-29T10:24:35.661Z,4.20
2017-12-29T10:25:35.638Z,4.32
2017-12-29T10:27:28.490Z,4.26
2017-12-29T10:28:28.433Z,4.22
2017-12-29T10:30:21.258Z,4.19
2017-12-29T10:31:21.235Z,4.23
2017-12-29T10:33:14.582Z,4.37
2017-12-29T10:34:14.510Z,4.40
2017-12-29T10:36:07.357Z,4.38
2017-12-29T10:37:07.315Z,4.35
2017-12-29T10:39:00.357Z,4.40
2017-12-29T10:40:00.300Z,4.38
2017-12-29T10:41:53.248Z,4.49
2017-12-29T10:42:53.155Z,4.56
2017-12-29T10:44:46.105Z,4.58
2017-12-29T10:45:46.001Z,4.63
2017-12-29T10:47:38.950Z,4.58
2017-12-29T10:48:38.845Z,4.62
2017-12-29T10:50:31.798Z,4.74
2017-12-29T10:51:31.701Z,4.70
2017-12-29T10:53:24.582Z,4.84
2017-12-29T10:54:24.611Z,4.94
2017-12-29T10:56:21.491Z,4.89
2017-12-29T10:57:17.443Z,4.94
2017-12-29T10:59:10.859Z,4.94
2017-12-29T11:00:10.766Z,4.97
2017-12-29T11:02:04.180Z,4.96
2017-12-29T11:03:04.131Z,4.97
2017-12-29T11:04:57.012Z,4.89
2017-12-29T11:05:56.989Z,4.96
2017-12-29T11:07:49.919Z,4.97
2017-12-29T11:08:49.832Z,4.99
2017-12-29T11:10:42.770Z,4.99
2017-12-29T11:11:42.694Z,5.10
2017-12-29T11:13:35.635Z,5.10
2017-12-29T11:14:35.529Z,5.08
2017-12-29T11:16:28.429Z,5.08
2017-12-29T11:17:28.437Z,5.02
2017-12-29T11:19:21.282Z,5.10
2017-12-29T11:20:21.231Z,5.18
2017-12-29T11:22:14.175Z,5.00
2017-12-29T11:23:14.076Z,5.05
2017-12-29T11:25:07.030Z,5.12
2017-12-29T11:26:06.930Z,5.08
2017-12-29T11:27:59.819Z,5.14
2017-12-29T11:28:59.779Z,5.15
2017-12-29T11:30:52.688Z,5.08
2017-12-29T11:31:52.627Z,4.99
2017-12-29T11:33:45.578Z,4.97
2017-12-29T11:34:45.492Z,5.10
2017-12-29T11:36:38.426Z,5.17
2017-12-29T11:37:38.332Z,5.17
2017-12-29T11:39:31.278Z,5.14
2017-12-29T11:40:31.186Z,5.17
2017-12-29T11:42:24.097Z,5.12
2017-12-29T11:43:24.031Z,5.14
2017-12-29T11:45:16.913Z,5.11
2017-12-29T11:46:16.892Z,5.17
2017-12-29T11:48:09.831Z,5.17
2017-12-29T11:49:09.735Z,5.23
2017-12-29T11:51:02.613Z,5.15
2017-12-29T11:52:02.585Z,5.08
2017-12-29T11:53:55.493Z,5.18
2017-12-29T11:54:55.444Z,5.21
2017-12-29T11:56:48.322Z,5.23
2017-12-29T11:57:48.286Z,5.35
2017-12-29T11:59:41.200Z,5.23
2017-12-29T12:00:42.033Z,5.28
2017-12-29T12:02:35.163Z,5.44
2017-12-29T12:03:33.987Z,5.36
2017-12-29T12:05:26.938Z,5.44
2017-12-29T12:06:26.835Z,5.47
2017-12-29T12:08:19.780Z,5.41
2017-12-29T12:09:19.744Z,5.35
2017-12-29T12:11:12.635Z,5.35
2017-12-29T12:12:12.536Z,5.35
2017-12-29T12:14:05.369Z,5.28
2017-12-29T12:15:05.341Z,5.30
2017-12-29T12:16:58.538Z,5.46
2017-12-29T12:17:58.371Z,5.35
2017-12-29T12:19:51.223Z,5.38
2017-12-29T12:20:51.191Z,5.33
2017-12-29T12:22:44.145Z,5.43
2017-12-29T12:23:44.040Z,5.29
2017-12-29T12:25:36.988Z,5.35
2017-12-29T12:26:36.890Z,5.36
2017-12-29T12:28:29.806Z,5.35
2017-12-29T12:29:29.740Z,5.26
2017-12-29T12:31:22.691Z,5.46
2017-12-29T12:32:22.594Z,5.43
2017-12-29T12:34:15.644Z,5.25
2017-12-29T12:35:15.445Z,5.26
2017-12-29T12:37:08.388Z,5.33
2017-12-29T12:38:08.293Z,5.25
2017-12-29T12:40:01.238Z,5.21
2017-12-29T12:41:01.153Z,5.26
2017-12-29T12:42:54.029Z,5.30
2017-12-29T12:43:53.997Z,5.29
2017-12-29T12:45:46.912Z,5.35
2017-12-29T12:46:46.857Z,5.36
2017-12-29T12:48:39.727Z,5.29
2017-12-29T12:49:39.700Z,5.33
2017-12-29T12:51:32.619Z,5.32
2017-12-29T12:52:32.558Z,5.26
2017-12-29T12:54:25.494Z,5.21
2017-12-29T12:55:25.399Z,5.26
2017-12-29T12:57:18.317Z,5.26
2017-12-29T12:58:18.252Z,5.18
2017-12-29T13:00:11.141Z,5.26
2017-12-29T13:01:11.156Z,5.23
2017-12-29T13:03:04.042Z,5.33
2017-12-29T13:04:04.191Z,5.25
2017-12-29T13:05:56.895Z,5.25
2017-12-29T13:06:56.802Z,5.32
2017-12-29T13:08:49.720Z,5.26
2017-12-29T13:09:49.649Z,5.28
2017-12-29T13:11:42.603Z,5.36
2017-12-29T13:12:42.511Z,5.36
2017-12-29T13:14:35.416Z,5.36
2017-12-29T13:15:35.431Z,5.29
2017-12-29T13:17:28.328Z,5.33
2017-12-29T13:18:28.231Z,5.32
2017-12-29T13:20:21.214Z,5.25
2017-12-29T13:21:21.212Z,5.28
2017-12-29T13:23:14.103Z,5.25
2017-12-29T13:24:14.024Z,5.21
2017-12-29T13:26:06.953Z,4.99
2017-12-29T13:27:06.858Z,4.90
2017-12-29T13:28:59.796Z,4.67
2017-12-29T13:29:59.738Z,4.60
2017-12-29T13:31:52.607Z,4.67
2017-12-29T13:32:52.615Z,4.67
2017-12-29T13:34:45.433Z,4.38
2017-12-29T13:35:45.418Z,4.42
2017-12-29T13:37:38.324Z,4.20
2017-12-29T13:38:38.261Z,4.19
2017-12-29T13:40:31.674Z,4.14
2017-12-29T13:41:31.112Z,4.20
2017-12-29T13:43:24.022Z,4.19
2017-12-29T13:44:23.954Z,4.10
2017-12-29T13:46:17.375Z,4.01
2017-12-29T13:47:16.809Z,3.98
2017-12-29T13:49:09.726Z,3.81
2017-12-29T13:50:09.656Z,3.74
2017-12-29T13:52:02.541Z,3.65
2017-12-29T13:53:02.507Z,3.69
2017-12-29T13:54:55.424Z,3.68
2017-12-29T13:55:55.373Z,3.66
2017-12-29T13:57:48.242Z,3.63
2017-12-29T13:58:48.211Z,3.62
2017-12-29T14:00:41.154Z,3.60
2017-12-29T14:01:41.059Z,3.62
2017-12-29T14:03:33.938Z,3.66
2017-12-29T14:04:33.911Z,3.56
2017-12-29T14:06:26.857Z,3.53
2017-12-29T14:07:26.762Z,3.48
2017-12-29T14:09:19.642Z,3.53
2017-12-29T14:10:19.608Z,3.47
2017-12-29T14:12:12.565Z,3.48
2017-12-29T14:13:12.459Z,3.48
2017-12-29T14:15:05.337Z,3.50
2017-12-29T14:16:05.315Z,3.51
2017-12-29T14:17:58.259Z,3.34
2017-12-29T14:18:58.160Z,3.40
2017-12-29T14:20:51.080Z,3.36
2017-12-29T14:21:51.086Z,3.40
2017-12-29T14:23:43.929Z,3.42
2017-12-29T14:24:43.872Z,3.23
2017-12-29T14:26:36.747Z,3.34
2017-12-29T14:27:36.716Z,3.50
2017-12-29T14:29:29.629Z,3.40
2017-12-29T14:30:29.559Z,3.36
2017-12-29T14:32:22.447Z,3.29
2017-12-29T14:33:22.480Z,3.31
2017-12-29T14:35:15.326Z,3.28
2017-12-29T14:36:15.346Z,3.25
2017-12-29T14:38:08.144Z,3.16
2017-12-29T14:39:08.174Z,3.18
2017-12-29T14:41:01.038Z,3.18
2017-12-29T14:42:00.966Z,3.00
2017-12-29T14:43:53.847Z,3.07
2017-12-29T14:44:53.879Z,3.16
2017-12-29T14:46:46.772Z,2.87
2017-12-29T14:47:46.678Z,2.86
2017-12-29T14:49:39.553Z,2.82
2017-12-29T14:50:39.577Z,2.74
2017-12-29T14:52:32.447Z,2.69
2017-12-29T14:53:32.429Z,2.71
2017-12-29T14:55:25.337Z,2.56
2017-12-29T14:56:25.216Z,2.44
2017-12-29T14:58:18.677Z,2.35
2017-12-29T14:59:18.582Z,2.44
2017-12-29T15:01:11.464Z,2.36
2017-12-29T15:02:11.430Z,2.35
2017-12-29T15:04:04.349Z,2.38
2017-12-29T15:05:04.277Z,2.46
2017-12-29T15:06:57.228Z,2.42
2017-12-29T15:07:57.129Z,2.46
2017-12-29T15:09:50.040Z,2.39
2017-12-29T15:10:49.981Z,2.38
2017-12-29T15:12:42.934Z,2.38
2017-12-29T15:13:42.830Z,2.44
2017-12-29T15:15:35.745Z,2.44
2017-12-29T15:16:35.681Z,2.42
2017-12-29T15:18:28.569Z,2.42
2017-12-29T15:19:28.531Z,2.47
2017-12-29T15:21:21.450Z,2.50
2017-12-29T15:22:21.440Z,2.50
2017-12-29T15:24:14.332Z,2.50
2017-12-29T15:25:14.234Z,2.57
2017-12-29T15:27:07.696Z,2.50
2017-12-29T15:28:07.595Z,2.57
2017-12-29T15:30:00.479Z,2.60
2017-12-29T15:31:00.445Z,2.60
2017-12-29T15:32:53.367Z,2.61
2017-12-29T15:33:53.306Z,2.65
2017-12-29T15:35:46.244Z,2.77
2017-12-29T15:36:46.162Z,2.65
2017-12-29T15:38:39.125Z,2.71
2017-12-29T15:39:38.998Z,2.67
2017-12-29T15:41:31.949Z,2.75
2017-12-29T15:42:31.853Z,2.72
2017-12-29T15:44:24.798Z,2.68
2017-12-29T15:45:24.699Z,2.65
2017-12-29T15:47:17.646Z,2.68
2017-12-29T15:48:17.561Z,2.65
2017-12-29T15:50:10.501Z,2.65
2017-12-29T15:51:10.402Z,2.60
2017-12-29T15:53:03.285Z,2.75
2017-12-29T15:54:03.451Z,2.67
2017-12-29T15:55:56.165Z,2.69
2017-12-29T15:56:56.102Z,2.68
2017-12-29T15:58:49.050Z,2.67
2017-12-29T15:59:48.947Z,2.68
2017-12-29T16:01:41.869Z,2.67
2017-12-29T16:02:43.911Z,2.74
2017-12-29T16:04:34.684Z,2.77
2017-12-29T16:05:34.664Z,2.77
2017-12-29T16:07:27.599Z,2.74
2017-12-29T16:08:27.515Z,2.72
2017-12-29T16:10:20.450Z,2.80
2017-12-29T16:11:20.364Z,2.74
2017-12-29T16:13:13.266Z,2.75
2017-12-29T16:14:13.263Z,2.79
2017-12-29T16:16:06.088Z,2.93
2017-12-29T16:17:06.052Z,2.83
2017-12-29T16:18:58.972Z,2.87
2017-12-29T16:19:58.966Z,2.89
2017-12-29T16:21:51.856Z,2.86
2017-12-29T16:22:51.764Z,2.87
2017-12-29T16:24:44.675Z,2.90
2017-12-29T16:25:44.666Z,2.87
2017-12-29T16:27:37.556Z,2.89
2017-12-29T16:28:37.460Z,2.82
2017-12-29T16:30:30.406Z,2.82
2017-12-29T16:31:30.318Z,2.85
2017-12-29T16:33:23.185Z,2.86
2017-12-29T16:34:23.217Z,2.83
2017-12-29T16:36:16.080Z,2.92
2017-12-29T16:37:16.066Z,2.90
2017-12-29T16:39:08.899Z,2.86
2017-12-29T16:40:08.882Z,2.93
2017-12-29T16:42:01.912Z,2.92
2017-12-29T16:43:01.720Z,2.87
2017-12-29T16:44:54.692Z,2.82
2017-12-29T16:45:54.659Z,2.87
2017-12-29T16:47:47.679Z,2.95
2017-12-29T16:48:47.608Z,2.83
2017-12-29T16:50:40.771Z,2.89
2017-12-29T16:51:40.566Z,2.89
2017-12-29T16:53:33.722Z,2.97
2017-12-29T16:54:33.514Z,3.00
2017-12-29T16:56:26.679Z,3.08
2017-12-29T16:57:26.463Z,2.97
2017-12-29T16:59:19.489Z,3.08
2017-12-29T17:00:19.588Z,3.01
2017-12-29T17:02:12.410Z,3.00
2017-12-29T17:03:12.380Z,3.00
2017-12-29T17:05:05.527Z,3.08
2017-12-29T17:06:05.330Z,3.10
2017-12-29T17:07:58.231Z,3.14
2017-12-29T17:09:02.765Z,3.16
2017-12-29T17:10:51.125Z,3.10
2017-12-29T17:13:04.003Z,3.04
2017-12-29T17:14:03.971Z,3.03
2017-12-29T17:15:56.996Z,2.98
2017-12-29T17:16:56.822Z,2.93
2017-12-29T17:18:50.281Z,3.07
2017-12-29T17:19:50.191Z,2.93
2017-12-29T17:21:43.128Z,3.00
2017-12-29T17:22:43.042Z,3.00
2017-12-29T17:24:35.918Z,2.87
2017-12-29T17:25:35.949Z,2.86
2017-12-29T17:27:29.320Z,2.87
2017-12-29T17:28:29.258Z,2.85
2017-12-29T17:30:22.144Z,2.93
2017-12-29T17:31:22.164Z,2.86
2017-12-29T17:33:15.056Z,2.92
2017-12-29T17:34:14.958Z,3.04
2017-12-29T17:36:07.955Z,3.01
2017-12-29T17:37:07.809Z,3.03
2017-12-29T17:39:01.277Z,2.95
2017-12-29T17:40:01.248Z,2.90
2017-12-29T17:41:54.061Z,2.98
2017-12-29T17:42:54.082Z,2.98
2017-12-29T17:44:46.943Z,2.98
2017-12-29T17:45:46.880Z,2.97
2017-12-29T17:47:39.824Z,3.07
2017-12-29T17:48:39.727Z,3.01
2017-12-29T17:50:32.681Z,2.98
2017-12-29T17:51:32.591Z,3.03
2017-12-29T17:53:25.534Z,3.01
2017-12-29T17:54:25.431Z,3.01
2017-12-29T17:56:18.380Z,3.13
2017-12-29T17:57:18.283Z,3.08
2017-12-29T17:59:11.230Z,3.21
2017-12-29T18:00:11.141Z,3.19
2017-12-29T18:02:04.083Z,3.16
2017-12-29T18:03:03.988Z,3.16
2017-12-29T18:04:56.873Z,3.14
2017-12-29T18:05:56.904Z,3.14
2017-12-29T18:07:49.762Z,3.11
2017-12-29T18:08:49.757Z,3.08
2017-12-29T18:10:42.645Z,3.18
2017-12-29T18:11:42.556Z,3.19
2017-12-29T18:13:35.461Z,3.19
2017-12-29T18:14:35.406Z,3.14
2017-12-29T18:16:28.351Z,3.16
2017-12-29T18:17:28.257Z,3.16
2017-12-29T18:19:21.206Z,3.08
2017-12-29T18:20:21.110Z,3.10
2017-12-29T18:22:14.049Z,3.11
2017-12-29T18:23:13.966Z,3.22
2017-12-29T18:25:06.944Z,3.16
2017-12-29T18:26:06.812Z,3.14
2017-12-29T18:28:00.714Z,3.11
2017-12-29T18:29:00.742Z,3.19
2017-12-29T18:30:53.629Z,3.16
2017-12-29T18:31:53.570Z,3.14
2017-12-29T18:33:46.504Z,3.18
2017-12-29T18:34:46.400Z,3.19
2017-12-29T18:36:39.300Z,3.22
2017-12-29T18:37:39.336Z,3.23
2017-12-29T18:39:32.136Z,3.22
2017-12-29T18:40:32.112Z,3.13
2017-12-29T18:42:25.014Z,3.13
2017-12-29T18:43:24.948Z,3.31
2017-12-29T18:45:17.832Z,3.23
2017-12-29T18:46:17.856Z,3.19
2017-12-29T18:48:10.726Z,3.28
2017-12-29T18:49:10.655Z,3.23
2017-12-29T18:51:03.532Z,3.31
2017-12-29T18:52:03.508Z,3.32
2017-12-29T18:53:56.410Z,3.34
2017-12-29T18:54:56.402Z,3.26
2017-12-29T18:56:49.362Z,3.32
2017-12-29T18:57:49.216Z,3.41
2017-12-29T18:59:42.128Z,3.51
2017-12-29T19:00:42.136Z,3.50
2017-12-29T19:02:36.033Z,3.51
2017-12-29T19:03:34.915Z,3.45
2017-12-29T19:05:27.833Z,3.47
2017-12-29T19:06:27.775Z,3.48
2017-12-29T19:08:20.650Z,3.59
2017-12-29T19:09:20.611Z,3.60
2017-12-29T19:11:13.528Z,3.53
2017-12-29T19:12:13.492Z,3.47
2017-12-29T19:14:06.354Z,3.55
2017-12-29T19:15:06.328Z,3.45
2017-12-29T19:16:59.294Z,3.45
2017-12-29T19:17:59.170Z,3.44
2017-12-29T19:19:52.059Z,3.55
2017-12-29T19:20:52.024Z,3.55
2017-12-29T19:22:44.949Z,3.59
2017-12-29T19:23:44.881Z,3.68
2017-12-29T19:25:37.823Z,3.58
2017-12-29T19:26:37.729Z,3.63
2017-12-29T19:28:30.677Z,3.69
2017-12-29T19:29:30.582Z,3.68
2017-12-29T19:31:23.535Z,3.60
2017-12-29T19:32:23.436Z,3.63
2017-12-29T19:34:16.354Z,3.66
2017-12-29T19:35:16.294Z,3.70
2017-12-29T19:37:09.240Z,3.65
2017-12-29T19:38:09.138Z,3.53
2017-12-29T19:40:02.082Z,3.56
2017-12-29T19:41:01.996Z,3.62
2017-12-29T19:42:54.937Z,3.60
2017-12-29T19:43:54.841Z,3.65
2017-12-29T19:45:47.845Z,3.50
2017-12-29T19:46:47.951Z,3.48
2017-12-29T19:48:40.939Z,3.41
2017-12-29T19:49:40.735Z,3.45
2017-12-29T19:51:33.662Z,3.31
2017-12-29T19:52:33.766Z,3.40
2017-12-29T19:54:26.644Z,3.44
2017-12-29T19:55:26.451Z,3.40
2017-12-29T19:57:19.456Z,3.45
2017-12-29T19:58:19.403Z,3.48
2017-12-29T20:00:12.407Z,3.42
2017-12-29T20:01:12.339Z,3.45
2017-12-29T20:03:06.438Z,3.44
2017-12-29T20:04:05.296Z,3.36
2017-12-29T20:05:58.279Z,3.45
2017-12-29T20:06:58.248Z,3.41
2017-12-29T20:08:51.314Z,3.42
2017-12-29T20:09:51.201Z,3.48
2017-12-29T20:11:44.183Z,3.48
2017-12-29T20:12:44.318Z,3.53
2017-12-29T20:14:37.210Z,3.50
2017-12-29T20:15:37.111Z,3.56
2017-12-29T20:17:30.087Z,3.48
2017-12-29T20:18:30.063Z,3.41
2017-12-29T20:20:23.071Z,3.47
2017-12-29T20:21:23.010Z,3.45
2017-12-29T20:23:16.001Z,3.47
2017-12-29T20:24:16.130Z,3.51
2017-12-29T20:26:09.129Z,3.47
2017-12-29T20:27:08.921Z,3.47
2017-12-29T20:29:01.897Z,3.36
2017-12-29T20:30:01.876Z,3.41
2017-12-29T20:31:54.888Z,3.31
2017-12-29T20:32:54.817Z,3.44
2017-12-29T20:34:48.019Z,3.32
2017-12-29T20:35:47.773Z,3.42
2017-12-29T20:37:40.790Z,3.36
2017-12-29T20:38:40.729Z,3.29
2017-12-29T20:40:33.712Z,3.41
2017-12-29T20:41:33.683Z,3.42
2017-12-29T20:43:26.839Z,3.34
2017-12-29T20:44:26.634Z,3.47
2017-12-29T20:46:19.620Z,3.47
2017-12-29T20:47:19.587Z,3.34
2017-12-29T20:49:12.630Z,3.47
2017-12-29T20:50:12.548Z,3.47
2017-12-29T20:52:05.523Z,3.47
2017-12-29T20:53:05.496Z,3.47
2017-12-29T20:54:58.650Z,3.50
2017-12-29T20:55:58.449Z,3.50
2017-12-29T20:57:51.501Z,3.51
2017-12-29T20:58:51.406Z,3.50
2017-12-29T21:00:44.556Z,3.51
2017-12-29T21:01:44.355Z,3.56
2017-12-29T21:03:37.340Z,3.63
2017-12-29T21:04:37.305Z,3.63
2017-12-29T21:06:30.462Z,3.69
2017-12-29T21:07:30.255Z,3.63
2017-12-29T21:09:23.316Z,3.68
2017-12-29T21:10:23.238Z,3.66
2017-12-29T21:12:16.365Z,3.73
2017-12-29T21:13:16.166Z,3.60
2017-12-29T21:15:09.131Z,3.74
2017-12-29T21:16:09.021Z,3.78
2017-12-29T21:18:02.025Z,3.76
2017-12-29T21:19:01.964Z,3.81
2017-12-29T21:20:54.915Z,3.95
2017-12-29T21:21:54.830Z,3.84
2017-12-29T21:23:47.971Z,3.94
2017-12-29T21:24:47.776Z,3.84
2017-12-29T21:26:40.653Z,3.95
2017-12-29T21:27:40.686Z,3.99
2017-12-29T21:29:33.677Z,4.02
2017-12-29T21:30:33.481Z,4.01
2017-12-29T21:32:26.426Z,4.06
2017-12-29T21:33:26.322Z,4.10
2017-12-29T21:35:19.271Z,4.05
2017-12-29T21:36:19.339Z,4.02
2017-12-29T21:38:12.057Z,4.10
2017-12-29T21:39:12.088Z,4.08
2017-12-29T21:41:05.075Z,4.12
2017-12-29T21:42:04.879Z,4.10
2017-12-29T21:43:57.760Z,4.19
2017-12-29T21:44:57.789Z,4.19
2017-12-29T21:46:50.630Z,4.17
2017-12-29T21:47:50.576Z,4.20
2017-12-29T21:49:43.539Z,4.24
2017-12-29T21:50:43.428Z,4.26
2017-12-29T21:52:36.349Z,4.28
2017-12-29T21:53:36.277Z,4.32
2017-12-29T21:55:29.225Z,4.32
2017-12-29T21:56:29.143Z,4.35
2017-12-29T21:58:22.041Z,4.42
2017-12-29T21:59:21.983Z,4.35
2017-12-29T22:01:14.863Z,4.37
2017-12-29T22:02:14.832Z,4.35
2017-12-29T22:04:07.847Z,4.53
2017-12-29T22:05:07.780Z,4.45
2017-12-29T22:07:00.837Z,4.53
2017-12-29T22:08:00.728Z,4.58
2017-12-29T22:09:53.750Z,4.59
2017-12-29T22:10:53.688Z,4.62
2017-12-29T22:12:46.668Z,4.62
2017-12-29T22:13:46.635Z,4.67
2017-12-29T22:15:39.796Z,4.70
2017-12-29T22:16:39.592Z,4.70
2017-12-29T22:18:32.573Z,4.73
2017-12-29T22:19:32.546Z,4.74
2017-12-29T22:21:25.714Z,4.75
2017-12-29T22:22:25.496Z,4.71
2017-12-29T22:24:18.655Z,4.74
2017-12-29T22:25:18.447Z,4.82
2017-12-29T22:27:11.602Z,4.77
2017-12-29T22:28:11.399Z,4.74
2017-12-29T22:30:04.393Z,4.71
2017-12-29T22:31:04.376Z,4.82
2017-12-29T22:32:57.368Z,4.94
2017-12-29T22:33:57.473Z,4.94
2017-12-29T22:35:50.478Z,4.99
2017-12-29T22:36:50.261Z,4.96
2017-12-29T22:38:43.416Z,5.00
2017-12-29T22:39:43.210Z,4.97
2017-12-29T22:41:36.381Z,5.14
2017-12-29T22:42:36.166Z,5.05
2017-12-29T22:44:29.324Z,5.07
2017-12-29T22:45:29.125Z,4.94
2017-12-29T22:47:22.278Z,5.07
2017-12-29T22:48:22.067Z,5.11
2017-12-29T22:50:15.229Z,5.12
2017-12-29T22:51:15.028Z,5.18
2017-12-29T22:53:08.012Z,5.08
2017-12-29T22:54:07.975Z,5.12
2017-12-29T22:56:01.129Z,5.12
2017-12-29T22:57:00.931Z,5.11
2017-12-29T22:58:53.919Z,5.10
2017-12-29T22:59:53.886Z,5.14
2017-12-29T23:01:47.037Z,5.17
2017-12-29T23:02:46.853Z,5.11
2017-12-29T23:04:39.816Z,5.11
2017-12-29T23:05:39.791Z,5.12
2017-12-29T23:07:33.355Z,5.12
2017-12-29T23:08:33.256Z,5.10
2017-12-29T23:10:26.241Z,5.15
2017-12-29T23:11:26.371Z,5.11
2017-12-29T23:13:19.226Z,5.10
2017-12-29T23:14:19.324Z,5.12
2017-12-29T23:16:12.140Z,5.08
2017-12-29T23:17:12.278Z,5.11
2017-12-29T23:19:05.134Z,5.07
2017-12-29T23:20:05.232Z,5.08
2017-12-29T23:21:58.055Z,5.00
2017-12-29T23:22:58.185Z,5.02
2017-12-29T23:24:51.173Z,4.94
2017-12-29T23:25:50.972Z,5.00
2017-12-29T23:27:44.126Z,5.02
2017-12-29T23:28:43.926Z,4.99
2017-12-29T23:30:37.082Z,5.12
2017-12-29T23:31:36.872Z,5.10
2017-12-29T23:33:30.029Z,5.07
2017-12-29T23:34:29.825Z,5.12
2017-12-29T23:36:22.986Z,5.12
2017-12-29T23:37:22.786Z,5.14
2017-12-29T23:39:15.939Z,5.12
2017-12-29T23:40:15.733Z,5.14
2017-12-29T23:42:08.750Z,5.07
2017-12-29T23:43:08.688Z,5.14
2017-12-29T23:45:01.696Z,5.08
2017-12-29T23:46:01.639Z,5.11
2017-12-29T23:47:54.792Z,5.15
2017-12-29T23:48:54.591Z,5.15
2017-12-29T23:50:47.655Z,5.11
2017-12-29T23:51:47.545Z,5.15
2017-12-29T23:53:40.565Z,5.12
2017-12-29T23:54:40.503Z,5.14
2017-12-29T23:56:33.550Z,5.18
2017-12-29T23:57:33.457Z,5.18
2017-12-29T23:59:26.458Z,5.29
